createdAt,value
2018-04-14T15:03:41.007Z,24.59
2018-04-14T15:03:41.245Z,24.67
2018-04-14T15:03:41.485Z,24.61
2018-04-14T15:03:41.723Z,24.66
2018-04-14T15:03:41.967Z,24.61
2018-04-14T15:03:42.206Z,24.68
2018-04-14T15:03:42.411Z,24.64
2018-04-14T15:03:42.654Z,24.63
2018-04-14T15:03:42.894Z,24.61
2018-04-14T15:03:43.131Z,24.59
2018-04-14T15:03:43.369Z,24.59
2018-04-14T15:03:43.607Z,24.64
2018-04-14T15:03:43.849Z,24.56
2018-04-14T15:03:44.089Z,24.61
2018-04-14T15:03:44.291Z,24.56
2018-04-14T15:03:44.553Z,24.61
2018-04-14T15:03:44.776Z,24.56
2018-04-14T15:03:45.013Z,24.55
2018-04-14T15:03:45.252Z,24.61
2018-04-14T15:03:45.489Z,24.61
2018-04-14T15:03:45.734Z,24.61
2018-04-14T15:03:45.975Z,24.64
2018-04-14T15:03:46.175Z,24.61
2018-04-14T15:03:46.417Z,24.56
2018-04-14T15:03:46.655Z,24.56
2018-04-14T15:03:46.895Z,24.56
2018-04-14T15:03:47.136Z,24.53
2018-04-14T15:03:47.375Z,24.53
2018-04-14T15:03:47.614Z,24.52
2018-04-14T15:03:47.853Z,24.53
2018-04-14T15:03:48.091Z,24.55
2018-04-14T15:03:48.328Z,24.48
2018-04-14T15:03:48.565Z,24.52
2018-04-14T15:03:48.806Z,24.52
2018-04-14T15:03:49.047Z,24.49
2018-04-14T15:03:49.286Z,24.55
2018-04-14T15:03:49.524Z,24.51
2018-04-14T15:03:49.763Z,24.52
2018-04-14T15:03:50.003Z,24.49
2018-04-14T15:03:50.239Z,24.49
2018-04-14T15:03:50.481Z,24.46
2018-04-14T15:03:50.719Z,24.53
2018-04-14T15:03:50.960Z,24.51
2018-04-14T15:03:51.198Z,24.49
2018-04-14T15:03:51.439Z,24.49
2018-04-14T15:03:51.681Z,24.48
2018-04-14T15:03:51.922Z,24.45
2018-04-14T15:03:52.161Z,24.49
2018-04-14T15:03:52.403Z,24.48
2018-04-14T15:03:52.633Z,24.51
2018-04-14T15:03:52.920Z,24.45
2018-04-14T15:03:53.176Z,24.44
2018-04-14T15:03:53.416Z,24.46
2018-04-14T15:03:53.657Z,24.45
2018-04-14T15:03:53.900Z,24.48
2018-04-14T15:03:54.098Z,24.46
2018-04-14T15:03:54.343Z,24.48
2018-04-14T15:03:54.577Z,24.34
2018-04-14T15:03:54.821Z,24.46
2018-04-14T15:03:55.054Z,24.49
2018-04-14T15:03:55.295Z,24.33
2018-04-14T15:03:55.532Z,24.48
2018-04-14T15:03:55.775Z,24.37
2018-04-14T15:03:56.050Z,24.39
2018-04-14T15:03:56.280Z,24.42
2018-04-14T15:03:56.536Z,24.41
2018-04-14T15:03:56.777Z,24.46
2018-04-14T15:03:57.015Z,24.34
2018-04-14T15:03:57.253Z,24.31
2018-04-14T15:03:57.496Z,24.39
2018-04-14T15:03:57.733Z,24.39
2018-04-14T15:03:57.972Z,24.41
2018-04-14T15:03:58.211Z,24.33
2018-04-14T15:03:58.448Z,24.39
2018-04-14T15:03:58.688Z,24.46
2018-04-14T15:03:58.928Z,24.39
2018-04-14T15:03:59.225Z,24.34
2018-04-14T15:03:59.470Z,24.39
2018-04-14T15:03:59.704Z,24.36
2018-04-14T15:03:59.946Z,24.39
2018-04-14T15:04:00.186Z,24.36
2018-04-14T15:04:00.431Z,24.41
2018-04-14T15:04:00.728Z,24.39
2018-04-14T15:04:00.933Z,24.36
2018-04-14T15:04:01.177Z,24.37
2018-04-14T15:04:01.416Z,24.39
2018-04-14T15:04:01.659Z,24.33
2018-04-14T15:04:01.890Z,24.39
2018-04-14T15:04:02.130Z,24.39
2018-04-14T15:04:02.373Z,24.36
2018-04-14T15:04:02.607Z,24.39
2018-04-14T15:04:02.854Z,24.39
2018-04-14T15:04:03.091Z,24.36
2018-04-14T15:04:03.340Z,24.41
2018-04-14T15:04:04.448Z,24.39
2018-04-14T15:04:04.698Z,24.39
2018-04-14T15:04:04.933Z,24.44
2018-04-14T15:04:05.132Z,24.39
2018-04-14T15:04:05.372Z,24.41
2018-04-14T15:04:05.612Z,24.34
2018-04-14T15:04:05.924Z,24.36
2018-04-14T15:04:06.156Z,24.39
2018-04-14T15:04:06.395Z,24.36
2018-04-14T15:04:06.639Z,24.31
2018-04-14T15:04:06.876Z,24.33
2018-04-14T15:04:07.126Z,24.36
2018-04-14T15:04:07.359Z,24.31
2018-04-14T15:04:07.622Z,24.33
2018-04-14T15:04:07.795Z,24.31
2018-04-14T15:04:08.034Z,24.36
2018-04-14T15:04:08.273Z,24.31
2018-04-14T15:04:08.537Z,24.39
2018-04-14T15:04:08.776Z,24.29
2018-04-14T15:04:09.019Z,24.36
2018-04-14T15:04:09.252Z,24.39
2018-04-14T15:04:09.493Z,24.41
2018-04-14T15:04:09.732Z,24.37
2018-04-14T15:04:09.975Z,24.33
2018-04-14T15:04:10.221Z,24.33
2018-04-14T15:04:10.454Z,24.34
2018-04-14T15:04:10.694Z,24.27
2018-04-14T15:04:10.894Z,24.36
2018-04-14T15:04:11.158Z,24.33
2018-04-14T15:04:11.405Z,24.41
2018-04-14T15:04:11.646Z,24.29
2018-04-14T15:04:11.971Z,24.39
2018-04-14T15:04:12.208Z,24.39
2018-04-14T15:04:12.448Z,24.33
2018-04-14T15:04:12.682Z,24.31
2018-04-14T15:04:12.923Z,24.27
2018-04-14T15:04:13.163Z,24.41
2018-04-14T15:04:13.401Z,24.36
2018-04-14T15:04:13.644Z,24.39
2018-04-14T15:04:13.844Z,24.3
2018-04-14T15:04:14.081Z,24.29
2018-04-14T15:04:14.283Z,24.29
2018-04-14T15:04:14.521Z,24.29
2018-04-14T15:04:14.774Z,24.31
2018-04-14T15:04:15.011Z,24.36
2018-04-14T15:04:15.251Z,24.3
2018-04-14T15:04:15.495Z,24.27
2018-04-14T15:04:15.728Z,24.3
2018-04-14T15:04:15.931Z,24.3
2018-04-14T15:04:16.246Z,24.33
2018-04-14T15:04:16.484Z,24.31
2018-04-14T15:04:16.727Z,24.24
2018-04-14T15:04:16.964Z,24.31
2018-04-14T15:04:17.206Z,24.29
2018-04-14T15:04:17.447Z,24.18
2018-04-14T15:04:17.681Z,24.23
2018-04-14T15:04:17.948Z,24.21
2018-04-14T15:04:18.195Z,24.24
2018-04-14T15:04:18.395Z,24.21
2018-04-14T15:04:18.589Z,24.23
2018-04-14T15:04:18.831Z,24.15
2018-04-14T15:04:19.077Z,24.23
2018-04-14T15:04:19.389Z,24.26
2018-04-14T15:04:19.695Z,24.19
2018-04-14T15:04:19.935Z,24.23
2018-04-14T15:04:20.173Z,24.26
2018-04-14T15:04:20.410Z,24.21
2018-04-14T15:04:20.800Z,24.26
2018-04-14T15:04:21.040Z,24.21
2018-04-14T15:04:21.282Z,24.18
2018-04-14T15:04:21.523Z,24.18
2018-04-14T15:04:21.762Z,24.24
2018-04-14T15:04:22.002Z,24.24
2018-04-14T15:04:22.245Z,24.18
2018-04-14T15:04:22.487Z,24.15
2018-04-14T15:04:22.727Z,24.19
2018-04-14T15:04:22.972Z,24.15
2018-04-14T15:04:23.172Z,24.15
2018-04-14T15:04:23.405Z,24.14
2018-04-14T15:04:23.645Z,24.24
2018-04-14T15:04:23.900Z,24.24
2018-04-14T15:04:24.144Z,24.19
2018-04-14T15:04:24.381Z,24.21
2018-04-14T15:04:24.624Z,24.18
2018-04-14T15:04:24.857Z,24.21
2018-04-14T15:04:25.160Z,24.23
2018-04-14T15:04:25.390Z,24.23
2018-04-14T15:04:25.611Z,24.19
2018-04-14T15:04:25.850Z,24.21
2018-04-14T15:04:26.090Z,24.18
2018-04-14T15:04:26.331Z,24.21
2018-04-14T15:04:26.573Z,24.21
2018-04-14T15:04:27.439Z,24.21
2018-04-14T15:04:27.681Z,24.24
2018-04-14T15:04:27.928Z,24.15
2018-04-14T15:04:28.176Z,24.18
2018-04-14T15:04:28.403Z,24.18
2018-04-14T15:04:28.646Z,24.18
2018-04-14T15:04:28.885Z,24.12
2018-04-14T15:04:29.121Z,24.15
2018-04-14T15:04:29.360Z,24.14
2018-04-14T15:04:29.600Z,24.16
2018-04-14T15:04:29.800Z,24.15
2018-04-14T15:04:30.045Z,24.23
2018-04-14T15:04:30.278Z,24.19
2018-04-14T15:04:30.516Z,24.23
2018-04-14T15:04:30.755Z,24.18
2018-04-14T15:04:30.993Z,24.23
2018-04-14T15:04:31.233Z,24.23
2018-04-14T15:04:31.432Z,24.21
2018-04-14T15:04:32.440Z,24.21
2018-04-14T15:04:32.752Z,24.23
2018-04-14T15:04:32.990Z,24.24
2018-04-14T15:04:33.228Z,24.19
2018-04-14T15:04:33.471Z,24.21
2018-04-14T15:04:33.711Z,24.18
2018-04-14T15:04:33.952Z,24.19
2018-04-14T15:04:34.189Z,24.14
2018-04-14T15:04:34.431Z,24.11
2018-04-14T15:04:34.672Z,24.14
2018-04-14T15:04:34.914Z,24.15
2018-04-14T15:04:35.155Z,24.16
2018-04-14T15:04:35.395Z,24.18
2018-04-14T15:04:35.633Z,24.16
2018-04-14T15:04:35.871Z,24.15
2018-04-14T15:04:36.110Z,24.18
2018-04-14T15:04:36.320Z,24.11
2018-04-14T15:04:36.555Z,24.14
2018-04-14T15:04:36.798Z,24.14
2018-04-14T15:04:37.039Z,24.14
2018-04-14T15:04:37.282Z,24.14
2018-04-14T15:04:37.515Z,24.16
2018-04-14T15:04:37.754Z,24.18
2018-04-14T15:04:37.998Z,24.12
2018-04-14T15:04:38.940Z,24.24
2018-04-14T15:04:39.187Z,24.11
2018-04-14T15:04:39.421Z,24.09
2018-04-14T15:04:39.660Z,24.18
2018-04-14T15:04:39.900Z,24.15
2018-04-14T15:04:40.133Z,24.09
2018-04-14T15:04:40.380Z,24.16
2018-04-14T15:04:40.619Z,24.24
2018-04-14T15:04:40.858Z,24.18
2018-04-14T15:04:41.100Z,24.15
2018-04-14T15:04:41.340Z,24.11
2018-04-14T15:04:41.579Z,24.11
2018-04-14T15:04:41.821Z,24.21
2018-04-14T15:04:42.061Z,24.19
2018-04-14T15:04:42.300Z,24.08
2018-04-14T15:04:43.439Z,24.12
2018-04-14T15:04:43.678Z,24.06
2018-04-14T15:04:43.920Z,24.12
2018-04-14T15:04:44.159Z,24.05
2018-04-14T15:04:44.398Z,24.06
2018-04-14T15:04:44.639Z,24.08
2018-04-14T15:04:44.878Z,24.04
2018-04-14T15:04:45.119Z,24.06
2018-04-14T15:04:45.356Z,24.09
2018-04-14T15:04:45.600Z,24.12
2018-04-14T15:04:45.837Z,24.02
2018-04-14T15:04:46.082Z,24.08
2018-04-14T15:04:46.313Z,24.16
2018-04-14T15:04:46.561Z,24.08
2018-04-14T15:04:46.798Z,24.05
2018-04-14T15:04:47.040Z,24.16
2018-04-14T15:04:47.244Z,24.11
2018-04-14T15:04:47.478Z,24.06
2018-04-14T15:04:47.722Z,24.08
2018-04-14T15:04:47.955Z,24.06
2018-04-14T15:04:48.198Z,24.14
2018-04-14T15:04:48.395Z,24.11
2018-04-14T15:04:48.731Z,24.14
2018-04-14T15:04:48.973Z,24.12
2018-04-14T15:04:49.209Z,24.04
2018-04-14T15:04:49.449Z,24.16
2018-04-14T15:04:49.779Z,24.09
2018-04-14T15:04:50.014Z,24.06
2018-04-14T15:04:50.256Z,24.05
2018-04-14T15:04:50.512Z,24.08
2018-04-14T15:04:50.835Z,24.12
2018-04-14T15:04:51.115Z,24.14
2018-04-14T15:04:51.266Z,24.12
2018-04-14T15:04:51.504Z,24.15
2018-04-14T15:04:51.747Z,24.18
2018-04-14T15:04:51.982Z,24.09
2018-04-14T15:04:52.224Z,24.05
2018-04-14T15:04:52.478Z,24.09
2018-04-14T15:04:52.702Z,24.05
2018-04-14T15:04:52.949Z,24.09
2018-04-14T15:04:53.184Z,24.05
2018-04-14T15:04:53.422Z,24.09
2018-04-14T15:04:53.668Z,24.12
2018-04-14T15:04:53.907Z,24.05
2018-04-14T15:04:54.141Z,24.06
2018-04-14T15:04:54.389Z,24.05
2018-04-14T15:04:54.627Z,24.04
2018-04-14T15:04:54.874Z,24
2018-04-14T15:04:55.108Z,24.06
2018-04-14T15:04:55.359Z,24
2018-04-14T15:04:56.484Z,24.06
2018-04-14T15:04:56.684Z,24.08
2018-04-14T15:04:56.925Z,24.06
2018-04-14T15:04:57.164Z,24.06
2018-04-14T15:04:57.953Z,24.05
2018-04-14T15:04:58.227Z,24.09
2018-04-14T15:04:58.434Z,24.08
2018-04-14T15:04:58.681Z,24.09
2018-04-14T15:04:58.918Z,24.12
2018-04-14T15:04:59.164Z,24.08
2018-04-14T15:04:59.372Z,24.09
2018-04-14T15:04:59.658Z,24.09
2018-04-14T15:04:59.790Z,24.05
2018-04-14T15:05:00.083Z,24.08
2018-04-14T15:05:00.295Z,24.02
2018-04-14T15:05:00.542Z,24.06
2018-04-14T15:05:00.757Z,24.02
2018-04-14T15:05:00.993Z,24.04
2018-04-14T15:05:01.248Z,24.05
2018-04-14T15:05:01.479Z,24.05
2018-04-14T15:05:01.754Z,24.06
2018-04-14T15:05:02.004Z,24.04
2018-04-14T15:05:02.191Z,24.08
2018-04-14T15:05:02.439Z,24.04
2018-04-14T15:05:02.656Z,24.02
2018-04-14T15:05:02.931Z,24.04
2018-04-14T15:05:03.093Z,24.05
2018-04-14T15:05:03.329Z,24.15
2018-04-14T15:05:03.568Z,24.02
2018-04-14T15:05:03.845Z,24.06
2018-04-14T15:05:04.055Z,24.02
2018-04-14T15:05:04.333Z,24.02
2018-04-14T15:05:04.602Z,24.06
2018-04-14T15:05:04.761Z,24.09
2018-04-14T15:05:05.023Z,24.06
2018-04-14T15:05:05.302Z,24.06
2018-04-14T15:05:05.571Z,24.18
2018-04-14T15:05:06.447Z,24.06
2018-04-14T15:05:06.681Z,24.06
2018-04-14T15:05:06.925Z,24.06
2018-04-14T15:05:07.940Z,24.06
2018-04-14T15:05:08.178Z,24.08
2018-04-14T15:05:08.418Z,24.04
2018-04-14T15:05:08.658Z,24.05
2018-04-14T15:05:08.859Z,24.08
2018-04-14T15:05:09.097Z,24.05
2018-04-14T15:05:09.342Z,24.06
2018-04-14T15:05:09.582Z,24.05
2018-04-14T15:05:09.830Z,24.06
2018-04-14T15:05:10.058Z,24
2018-04-14T15:05:10.300Z,24.05
2018-04-14T15:05:10.539Z,24.06
2018-04-14T15:05:10.773Z,24
2018-04-14T15:05:11.013Z,24.04
2018-04-14T15:05:11.258Z,24.04
2018-04-14T15:05:11.491Z,23.97
2018-04-14T15:05:11.731Z,23.97
2018-04-14T15:05:11.971Z,24.05
2018-04-14T15:05:12.211Z,24.02
2018-04-14T15:05:12.450Z,24.06
2018-04-14T15:05:12.689Z,24.05
2018-04-14T15:05:12.929Z,24.02
2018-04-14T15:05:13.172Z,24.02
2018-04-14T15:05:13.409Z,24.12
2018-04-14T15:05:13.655Z,24.12
2018-04-14T15:05:13.940Z,24.05
2018-04-14T15:05:14.177Z,24.06
2018-04-14T15:05:14.414Z,24.04
2018-04-14T15:05:14.650Z,24.08
2018-04-14T15:05:14.891Z,24
2018-04-14T15:05:15.125Z,24.06
2018-04-14T15:05:15.365Z,24.04
2018-04-14T15:05:15.602Z,24.05
2018-04-14T15:05:15.853Z,23.99
2018-04-14T15:05:16.081Z,23.99
2018-04-14T15:05:16.319Z,24.05
2018-04-14T15:05:16.555Z,24.11
2018-04-14T15:05:16.797Z,24.04
2018-04-14T15:05:17.054Z,24.02
2018-04-14T15:05:17.292Z,24.04
2018-04-14T15:05:17.530Z,24.04
2018-04-14T15:05:17.777Z,24.05
2018-04-14T15:05:18.011Z,24.04
2018-04-14T15:05:18.260Z,24.05
2018-04-14T15:05:18.501Z,24.04
2018-04-14T15:05:18.752Z,24.11
2018-04-14T15:05:18.983Z,24.02
2018-04-14T15:05:19.227Z,24.06
2018-04-14T15:05:19.470Z,24.08
2018-04-14T15:05:19.710Z,24.09
2018-04-14T15:05:19.953Z,24.04
2018-04-14T15:05:20.191Z,24
2018-04-14T15:05:20.429Z,24.11
2018-04-14T15:05:20.671Z,24.08
2018-04-14T15:05:20.908Z,24.04
2018-04-14T15:05:21.148Z,24.04
2018-04-14T15:05:21.397Z,24
2018-04-14T15:05:21.641Z,24.06
2018-04-14T15:05:21.884Z,24.04
2018-04-14T15:05:22.137Z,24.02
2018-04-14T15:05:22.377Z,24.06
2018-04-14T15:05:22.618Z,24.02
2018-04-14T15:05:22.853Z,23.99
2018-04-14T15:05:23.095Z,24.09
2018-04-14T15:05:23.334Z,24.04
2018-04-14T15:05:23.598Z,24.05
2018-04-14T15:05:23.853Z,24.09
2018-04-14T15:05:24.079Z,24.11
2018-04-14T15:05:24.321Z,24.04
2018-04-14T15:05:24.565Z,24.11
2018-04-14T15:05:24.805Z,24.04
2018-04-14T15:05:25.005Z,24.02
2018-04-14T15:05:25.247Z,24.08
2018-04-14T15:05:25.489Z,24.04
2018-04-14T15:05:25.729Z,24.09
2018-04-14T15:05:25.965Z,24.06
2018-04-14T15:05:26.202Z,24.08
2018-04-14T15:05:26.443Z,24.05
2018-04-14T15:05:26.689Z,24.08
2018-04-14T15:05:26.926Z,24.05
2018-04-14T15:05:27.170Z,24.05
2018-04-14T15:05:27.459Z,24.08
2018-04-14T15:05:27.641Z,24.12
2018-04-14T15:05:27.879Z,24
2018-04-14T15:05:28.081Z,23.99
2018-04-14T15:05:28.322Z,24.08
2018-04-14T15:05:28.556Z,24.04
2018-04-14T15:05:28.798Z,24
2018-04-14T15:05:29.039Z,24.04
2018-04-14T15:05:29.297Z,24.05
2018-04-14T15:05:29.536Z,24.06
2018-04-14T15:05:29.814Z,24.02
2018-04-14T15:05:30.062Z,24.02
2018-04-14T15:05:30.295Z,24.02
2018-04-14T15:05:30.536Z,24.04
2018-04-14T15:05:30.824Z,24.05
2018-04-14T15:05:31.063Z,24.04
2018-04-14T15:05:31.333Z,24.11
2018-04-14T15:05:31.572Z,24.06
2018-04-14T15:05:31.769Z,24.12
2018-04-14T15:05:32.011Z,24.04
2018-04-14T15:05:32.947Z,24.02
2018-04-14T15:05:33.189Z,24.08
2018-04-14T15:05:33.431Z,24.02
2018-04-14T15:05:33.671Z,24.12
2018-04-14T15:05:33.871Z,24.11
2018-04-14T15:05:34.114Z,24.02
2018-04-14T15:05:34.354Z,24.05
2018-04-14T15:05:34.596Z,24.04
2018-04-14T15:05:34.836Z,24.02
2018-04-14T15:05:35.075Z,24.02
2018-04-14T15:05:35.316Z,24.05
2018-04-14T15:05:35.554Z,24.05
2018-04-14T15:05:35.791Z,24.02
2018-04-14T15:05:36.035Z,24.05
2018-04-14T15:05:36.303Z,24.08
2018-04-14T15:05:36.545Z,24.08
2018-04-14T15:05:36.745Z,24.02
2018-04-14T15:05:36.983Z,24.05
2018-04-14T15:05:37.221Z,24.05
2018-04-14T15:05:38.439Z,24.05
2018-04-14T15:05:38.676Z,24.08
2018-04-14T15:05:38.961Z,24.06
2018-04-14T15:05:39.154Z,24.06
2018-04-14T15:05:39.400Z,24.09
2018-04-14T15:05:39.630Z,24.08
2018-04-14T15:05:39.869Z,24.05
2018-04-14T15:05:40.109Z,24.02
2018-04-14T15:05:40.351Z,24.08
2018-04-14T15:05:40.605Z,24.05
2018-04-14T15:05:40.798Z,24.08
2018-04-14T15:05:41.039Z,24.02
2018-04-14T15:05:41.278Z,24.02
2018-04-14T15:05:41.521Z,24.08
2018-04-14T15:05:41.758Z,24.04
2018-04-14T15:05:41.962Z,24.04
2018-04-14T15:05:42.204Z,24.08
2018-04-14T15:05:42.444Z,24.06
2018-04-14T15:05:42.680Z,24.06
2018-04-14T15:05:42.921Z,24.05
2018-04-14T15:05:43.157Z,24.08
2018-04-14T15:05:43.399Z,24.05
2018-04-14T15:05:43.645Z,24.06
2018-04-14T15:05:44.436Z,24.12
2018-04-14T15:05:44.676Z,24.06
2018-04-14T15:05:44.915Z,24.06
2018-04-14T15:05:45.245Z,24.06
2018-04-14T15:05:45.482Z,24.02
2018-04-14T15:05:45.728Z,24.04
2018-04-14T15:05:45.963Z,24.05
2018-04-14T15:05:46.203Z,24.02
2018-04-14T15:05:46.460Z,24.04
2018-04-14T15:05:46.685Z,24.02
2018-04-14T15:05:46.925Z,24
2018-04-14T15:05:47.162Z,24.02
2018-04-14T15:05:47.370Z,24.08
2018-04-14T15:05:47.615Z,24.05
2018-04-14T15:05:47.856Z,24.06
2018-04-14T15:05:48.099Z,24.12
2018-04-14T15:05:48.329Z,24.04
2018-04-14T15:05:48.570Z,24.04
2018-04-14T15:05:48.820Z,24.04
2018-04-14T15:05:49.048Z,23.99
2018-04-14T15:05:49.284Z,24.09
2018-04-14T15:05:49.529Z,24.12
2018-04-14T15:05:49.773Z,24.11
2018-04-14T15:05:50.008Z,24.08
2018-04-14T15:05:50.247Z,24.06
2018-04-14T15:05:50.484Z,24.02
2018-04-14T15:05:50.688Z,24.06
2018-04-14T15:05:50.934Z,24.06
2018-04-14T15:05:51.130Z,24.04
2018-04-14T15:05:51.367Z,24.04
2018-04-14T15:05:51.608Z,24.05
2018-04-14T15:05:51.847Z,24.04
2018-04-14T15:05:52.094Z,24.06
2018-04-14T15:05:52.325Z,24.05
2018-04-14T15:05:52.570Z,24.04
2018-04-14T15:05:52.807Z,24.02
2018-04-14T15:05:53.017Z,24
2018-04-14T15:05:53.245Z,23.99
2018-04-14T15:05:53.487Z,24.02
2018-04-14T15:05:53.729Z,24.02
2018-04-14T15:05:53.971Z,24.02
2018-04-14T15:05:54.204Z,24.04
2018-04-14T15:05:54.457Z,24.09
2018-04-14T15:05:54.692Z,24.05
2018-04-14T15:05:54.931Z,24.09
2018-04-14T15:05:55.170Z,24
2018-04-14T15:05:55.418Z,23.99
2018-04-14T15:05:55.659Z,24.04
2018-04-14T15:05:55.904Z,24.04
2018-04-14T15:05:56.136Z,24.02
2018-04-14T15:05:56.375Z,24.09
2018-04-14T15:05:56.615Z,24
2018-04-14T15:05:56.856Z,24.09
2018-04-14T15:05:57.096Z,24.02
2018-04-14T15:05:57.336Z,24.05
2018-04-14T15:05:57.574Z,24.09
2018-04-14T15:05:57.822Z,24.04
2018-04-14T15:05:58.055Z,24.02
2018-04-14T15:05:58.296Z,24.02
2018-04-14T15:05:58.532Z,24
2018-04-14T15:05:58.780Z,24.02
2018-04-14T15:05:59.053Z,24.14
2018-04-14T15:05:59.352Z,24.05
2018-04-14T15:05:59.590Z,24.02
2018-04-14T15:05:59.809Z,24.05
2018-04-14T15:06:00.033Z,24.05
2018-04-14T15:06:00.274Z,24.04
2018-04-14T15:06:01.441Z,24.05
2018-04-14T15:06:01.679Z,24.09
2018-04-14T15:06:01.965Z,24.08
2018-04-14T15:06:02.157Z,24.04
2018-04-14T15:06:02.395Z,24.11
2018-04-14T15:06:02.661Z,24.04
2018-04-14T15:06:02.897Z,24.11
2018-04-14T15:06:03.141Z,24.05
2018-04-14T15:06:03.380Z,24.04
2018-04-14T15:06:03.583Z,24.08
2018-04-14T15:06:03.825Z,24.08
2018-04-14T15:06:04.941Z,24.05
2018-04-14T15:06:05.177Z,24.09
2018-04-14T15:06:05.420Z,24
2018-04-14T15:06:05.684Z,24.04
2018-04-14T15:06:05.916Z,24.09
2018-04-14T15:06:06.156Z,24
2018-04-14T15:06:06.399Z,24.06
2018-04-14T15:06:06.633Z,24.04
2018-04-14T15:06:06.874Z,24.09
2018-04-14T15:06:07.113Z,24.08
2018-04-14T15:06:07.409Z,24.06
2018-04-14T15:06:07.655Z,24.06
2018-04-14T15:06:07.926Z,24.09
2018-04-14T15:06:08.180Z,24.08
2018-04-14T15:06:08.428Z,24.06
2018-04-14T15:06:08.664Z,24.08
2018-04-14T15:06:08.903Z,24.06
2018-04-14T15:06:09.140Z,24.04
2018-04-14T15:06:09.382Z,24.05
2018-04-14T15:06:09.623Z,24.14
2018-04-14T15:06:09.864Z,24.14
2018-04-14T15:06:10.104Z,24.05
2018-04-14T15:06:10.347Z,24
2018-04-14T15:06:10.598Z,24.04
2018-04-14T15:06:10.830Z,24.08
2018-04-14T15:06:11.071Z,24.08
2018-04-14T15:06:11.312Z,24.11
2018-04-14T15:06:11.608Z,23.94
2018-04-14T15:06:11.847Z,23.97
2018-04-14T15:06:12.086Z,24.04
2018-04-14T15:06:12.325Z,24.09
2018-04-14T15:06:12.565Z,24.08
2018-04-14T15:06:12.770Z,24.05
2018-04-14T15:06:13.008Z,24
2018-04-14T15:06:13.246Z,24.08
2018-04-14T15:06:13.485Z,24.04
2018-04-14T15:06:13.723Z,24.12
2018-04-14T15:06:13.961Z,24.02
2018-04-14T15:06:14.167Z,24.08
2018-04-14T15:06:14.407Z,24.04
2018-04-14T15:06:14.648Z,24.04
2018-04-14T15:06:14.891Z,24.05
2018-04-14T15:06:15.133Z,24.05
2018-04-14T15:06:15.360Z,24.05
2018-04-14T15:06:15.605Z,24
2018-04-14T15:06:16.442Z,24.08
2018-04-14T15:06:16.681Z,24.05
2018-04-14T15:06:17.499Z,24.04
2018-04-14T15:06:17.737Z,24.02
2018-04-14T15:06:17.935Z,24.09
2018-04-14T15:06:18.173Z,24.08
2018-04-14T15:06:18.414Z,24.02
2018-04-14T15:06:18.653Z,24.06
2018-04-14T15:06:18.894Z,24.11
2018-04-14T15:06:19.132Z,24.14
2018-04-14T15:06:19.375Z,24.06
2018-04-14T15:06:19.611Z,23.97
2018-04-14T15:06:19.858Z,23.99
2018-04-14T15:06:20.083Z,24.05
2018-04-14T15:06:20.323Z,24.09
2018-04-14T15:06:20.525Z,24.05
2018-04-14T15:06:20.767Z,24.06
2018-04-14T15:06:21.007Z,23.97
2018-04-14T15:06:21.278Z,24.08
2018-04-14T15:06:21.534Z,24.06
2018-04-14T15:06:21.752Z,23.96
2018-04-14T15:06:21.995Z,23.97
2018-04-14T15:06:22.241Z,24.09
2018-04-14T15:06:22.481Z,24.08
2018-04-14T15:06:22.721Z,24.06
2018-04-14T15:06:22.960Z,24.05
2018-04-14T15:06:23.199Z,24.11
2018-04-14T15:06:23.446Z,24.08
2018-04-14T15:06:23.681Z,24.06
2018-04-14T15:06:23.922Z,24.05
2018-04-14T15:06:24.162Z,24.08
2018-04-14T15:06:24.941Z,24.04
2018-04-14T15:06:25.178Z,24.08
2018-04-14T15:06:25.940Z,24.04
2018-04-14T15:06:26.181Z,24
2018-04-14T15:06:26.422Z,24.05
2018-04-14T15:06:26.666Z,24.06
2018-04-14T15:06:26.907Z,24.08
2018-04-14T15:06:27.148Z,24.05
2018-04-14T15:06:27.399Z,24.05
2018-04-14T15:06:27.639Z,24.06
2018-04-14T15:06:27.881Z,24.06
2018-04-14T15:06:28.081Z,24.11
2018-04-14T15:06:28.322Z,24.04
2018-04-14T15:06:28.564Z,24.05
2018-04-14T15:06:28.797Z,24.02
2018-04-14T15:06:29.041Z,24.05
2018-04-14T15:06:29.288Z,23.94
2018-04-14T15:06:29.523Z,24.04
2018-04-14T15:06:29.756Z,24.02
2018-04-14T15:06:29.996Z,24
2018-04-14T15:06:30.234Z,24.05
2018-04-14T15:06:30.475Z,24.02
2018-04-14T15:06:30.716Z,24.09
2018-04-14T15:06:30.951Z,24.11
2018-04-14T15:06:31.209Z,24.08
2018-04-14T15:06:31.447Z,24.08
2018-04-14T15:06:31.645Z,24.06
2018-04-14T15:06:31.883Z,24.02
2018-04-14T15:06:32.123Z,24.06
2018-04-14T15:06:32.361Z,24.09
2018-04-14T15:06:32.604Z,24.05
2018-04-14T15:06:32.860Z,24.06
2018-04-14T15:06:33.083Z,23.97
2018-04-14T15:06:33.329Z,24.09
2018-04-14T15:06:33.559Z,24.06
2018-04-14T15:06:33.817Z,24.08
2018-04-14T15:06:34.101Z,24.02
2018-04-14T15:06:34.331Z,24.08
2018-04-14T15:06:34.606Z,24
2018-04-14T15:06:34.882Z,24.09
2018-04-14T15:06:35.080Z,24.12
2018-04-14T15:06:35.324Z,24.06
2018-04-14T15:06:35.573Z,24.04
2018-04-14T15:06:35.930Z,24.02
2018-04-14T15:06:36.190Z,24.12
2018-04-14T15:06:36.531Z,23.99
2018-04-14T15:06:36.724Z,24.04
2018-04-14T15:06:36.966Z,24.06
2018-04-14T15:06:37.209Z,24.08
2018-04-14T15:06:37.448Z,24.05
2018-04-14T15:06:37.687Z,24.06
2018-04-14T15:06:37.927Z,24.06
2018-04-14T15:06:38.174Z,24
2018-04-14T15:06:38.406Z,24.04
2018-04-14T15:06:38.646Z,24.04
2018-04-14T15:06:38.887Z,24.02
2018-04-14T15:06:39.133Z,24.02
2018-04-14T15:06:39.373Z,24.14
2018-04-14T15:06:39.606Z,24.05
2018-04-14T15:06:39.856Z,24.04
2018-04-14T15:06:40.079Z,24.11
2018-04-14T15:06:40.333Z,24.08
2018-04-14T15:06:40.560Z,24.08
2018-04-14T15:06:40.826Z,24.05
2018-04-14T15:06:41.092Z,24.06
2018-04-14T15:06:41.357Z,24.06
2018-04-14T15:06:41.598Z,24.04
2018-04-14T15:06:41.839Z,24.06
2018-04-14T15:06:42.078Z,24.08
2018-04-14T15:06:42.320Z,24.08
2018-04-14T15:06:42.558Z,24.04
2018-04-14T15:06:42.796Z,24.04
2018-04-14T15:06:43.036Z,24.08
2018-04-14T15:06:43.273Z,24.04
2018-04-14T15:06:43.511Z,24.05
2018-04-14T15:06:43.755Z,24.05
2018-04-14T15:06:44.002Z,24.02
2018-04-14T15:06:44.939Z,24.05
2018-04-14T15:06:45.239Z,24.05
2018-04-14T15:06:45.432Z,24.05
2018-04-14T15:06:45.657Z,24.08
2018-04-14T15:06:45.935Z,24.02
2018-04-14T15:06:46.137Z,24.08
2018-04-14T15:06:46.379Z,24.08
2018-04-14T15:06:46.683Z,24.08
2018-04-14T15:06:46.917Z,24.02
2018-04-14T15:06:47.158Z,24.08
2018-04-14T15:06:47.398Z,24.08
2018-04-14T15:06:47.594Z,24.08
2018-04-14T15:06:47.833Z,24.04
2018-04-14T15:06:48.128Z,24.02
2018-04-14T15:06:48.380Z,24.04
2018-04-14T15:06:48.613Z,24.06
2018-04-14T15:06:48.852Z,24.09
2018-04-14T15:06:49.091Z,24.06
2018-04-14T15:06:49.353Z,24.02
2018-04-14T15:06:49.602Z,24.06
2018-04-14T15:06:49.833Z,24.12
2018-04-14T15:06:50.940Z,24.05
2018-04-14T15:06:51.184Z,24.08
2018-04-14T15:06:51.421Z,24.02
2018-04-14T15:06:51.659Z,24.05
2018-04-14T15:06:51.900Z,24.08
2018-04-14T15:06:52.141Z,24.08
2018-04-14T15:06:52.380Z,24.11
2018-04-14T15:06:52.625Z,24.06
2018-04-14T15:06:52.866Z,24.08
2018-04-14T15:06:53.105Z,24.05
2018-04-14T15:06:53.344Z,24
2018-04-14T15:06:53.586Z,24.06
2018-04-14T15:06:53.824Z,24.05
2018-04-14T15:06:54.070Z,23.94
2018-04-14T15:06:54.307Z,24.11
2018-04-14T15:06:54.554Z,23.99
2018-04-14T15:06:54.783Z,24.08
2018-04-14T15:06:55.028Z,24.08
2018-04-14T15:06:55.262Z,24.08
2018-04-14T15:06:55.506Z,24
2018-04-14T15:06:55.749Z,23.99
2018-04-14T15:06:55.981Z,24.09
2018-04-14T15:06:56.220Z,24.05
2018-04-14T15:06:56.456Z,24.05
2018-04-14T15:06:56.712Z,23.97
2018-04-14T15:06:56.957Z,24.04
2018-04-14T15:06:57.190Z,23.94
2018-04-14T15:06:57.434Z,24.05
2018-04-14T15:06:57.675Z,24.05
2018-04-14T15:06:57.952Z,24
2018-04-14T15:06:58.153Z,24.05
2018-04-14T15:06:58.394Z,24.06
2018-04-14T15:06:58.631Z,24.02
2018-04-14T15:06:58.872Z,24.02
2018-04-14T15:06:59.124Z,23.97
2018-04-14T15:06:59.358Z,24.04
2018-04-14T15:06:59.600Z,24
2018-04-14T15:06:59.843Z,23.94
2018-04-14T15:07:00.083Z,23.99
2018-04-14T15:07:00.322Z,24.02
2018-04-14T15:07:00.554Z,24.08
2018-04-14T15:07:00.796Z,24.05
2018-04-14T15:07:01.035Z,24
2018-04-14T15:07:01.271Z,23.99
2018-04-14T15:07:01.512Z,24.08
2018-04-14T15:07:01.754Z,23.94
2018-04-14T15:07:01.993Z,23.99
2018-04-14T15:07:02.233Z,23.93